sensor_id;sensor_type;location;lat;lon;timestamp;pressure;altitude;pressure_sealevel;temperature;humidity
76460;BME280;65299;46.084;18.762;2024-01-16T00:01:31;99716.72;;;2.11;89.81
76460;BME280;65299;46.084;18.762;2024-01-16T00:04:31;99722.09;;;2.16;89.48
76460;BME280;65299;46.084;18.762;2024-01-16T00:07:32;99715.88;;;1.99;90.41
76460;BME280;65299;46.084;18.762;2024-01-16T00:10:34;99725.44;;;2.05;90.13
76460;BME280;65299;46.084;18.762;2024-01-16T00:13:35;99728.75;;;2.12;90.21
76460;BME280;65299;46.084;18.762;2024-01-16T00:16:47;99732.91;;;2.19;89.33
76460;BME280;65299;46.084;18.762;2024-01-16T00:19:48;99739.16;;;2.18;89.51
76460;BME280;65299;46.084;18.762;2024-01-16T00:22:49;99752.16;;;2.25;89.11
76460;BME280;65299;46.084;18.762;2024-01-16T00:25:49;99758.31;;;2.30;88.73
76460;BME280;65299;46.084;18.762;2024-01-16T00:28:49;99758.28;;;2.19;89.32
76460;BME280;65299;46.084;18.762;2024-01-16T00:31:50;99766.28;;;2.24;89.07
76460;BME280;65299;46.084;18.762;2024-01-16T00:34:50;99780.81;;;2.20;89.44
76460;BME280;65299;46.084;18.762;2024-01-16T00:37:51;99774.13;;;2.24;89.46
76460;BME280;65299;46.084;18.762;2024-01-16T00:40:52;99775.41;;;2.33;89.01
76460;BME280;65299;46.084;18.762;2024-01-16T00:43:52;99781.09;;;2.12;90.15
76460;BME280;65299;46.084;18.762;2024-01-16T00:46:53;99795.66;;;2.26;89.94
76460;BME280;65299;46.084;18.762;2024-01-16T00:49:54;99796.53;;;2.20;89.87
76460;BME280;65299;46.084;18.762;2024-01-16T00:52:54;99808.59;;;2.21;89.51
76460;BME280;65299;46.084;18.762;2024-01-16T00:55:54;99816.94;;;2.29;89.53
76460;BME280;65299;46.084;18.762;2024-01-16T00:58:55;99831.41;;;2.32;89.30
76460;BME280;65299;46.084;18.762;2024-01-16T01:01:55;99842.66;;;2.32;89.10
76460;BME280;65299;46.084;18.762;2024-01-16T01:04:56;99845.28;;;2.32;89.14
76460;BME280;65299;46.084;18.762;2024-01-16T01:07:56;99853.38;;;2.31;89.09
76460;BME280;65299;46.084;18.762;2024-01-16T01:10:57;99859.78;;;2.17;89.22
76460;BME280;65299;46.084;18.762;2024-01-16T01:13:57;99850.63;;;2.26;88.90
76460;BME280;65299;46.084;18.762;2024-01-16T01:16:58;99851.34;;;2.33;88.43
76460;BME280;65299;46.084;18.762;2024-01-16T01:19:59;99849.28;;;2.35;88.54
76460;BME280;65299;46.084;18.762;2024-01-16T01:22:59;99851.03;;;2.41;88.31
76460;BME280;65299;46.084;18.762;2024-01-16T01:26:00;99869.88;;;2.31;88.16
76460;BME280;65299;46.084;18.762;2024-01-16T01:29:00;99873.44;;;2.37;88.11
76460;BME280;65299;46.084;18.762;2024-01-16T01:32:01;99875.69;;;2.33;87.95
76460;BME280;65299;46.084;18.762;2024-01-16T01:35:01;99872.63;;;2.18;88.89
76460;BME280;65299;46.084;18.762;2024-01-16T01:38:02;99879.31;;;2.32;88.33
76460;BME280;65299;46.084;18.762;2024-01-16T01:41:02;99872.44;;;2.38;87.93
76460;BME280;65299;46.084;18.762;2024-01-16T01:44:03;99866.00;;;2.52;87.39
76460;BME280;65299;46.084;18.762;2024-01-16T01:47:04;99865.59;;;2.37;87.70
76460;BME280;65299;46.084;18.762;2024-01-16T01:50:06;99892.41;;;2.32;87.85
76460;BME280;65299;46.084;18.762;2024-01-16T01:53:08;99893.13;;;2.58;87.39
76460;BME280;65299;46.084;18.762;2024-01-16T01:56:11;99901.50;;;2.66;86.78
76460;BME280;65299;46.084;18.762;2024-01-16T01:59:14;99915.53;;;2.53;87.29
76460;BME280;65299;46.084;18.762;2024-01-16T02:02:18;99926.44;;;2.50;87.74
76460;BME280;65299;46.084;18.762;2024-01-16T02:05:20;99911.41;;;2.46;87.77
76460;BME280;65299;46.084;18.762;2024-01-16T02:08:22;99922.19;;;2.38;88.41
76460;BME280;65299;46.084;18.762;2024-01-16T02:11:22;99921.16;;;2.39;88.23
76460;BME280;65299;46.084;18.762;2024-01-16T02:14:23;99923.06;;;2.32;88.77
76460;BME280;65299;46.084;18.762;2024-01-16T02:17:23;99928.63;;;1.99;90.10
76460;BME280;65299;46.084;18.762;2024-01-16T02:20:23;99924.47;;;2.10;89.80
76460;BME280;65299;46.084;18.762;2024-01-16T02:23:27;99932.47;;;2.15;89.70
76460;BME280;65299;46.084;18.762;2024-01-16T02:26:28;99953.41;;;2.15;89.44
76460;BME280;65299;46.084;18.762;2024-01-16T02:29:30;99947.78;;;2.18;89.09
76460;BME280;65299;46.084;18.762;2024-01-16T02:32:31;99938.34;;;2.10;89.46
76460;BME280;65299;46.084;18.762;2024-01-16T02:35:31;99939.91;;;2.18;88.76
76460;BME280;65299;46.084;18.762;2024-01-16T02:38:31;99947.25;;;2.09;89.30
76460;BME280;65299;46.084;18.762;2024-01-16T02:41:32;99950.13;;;2.01;89.52
76460;BME280;65299;46.084;18.762;2024-01-16T02:44:32;99948.47;;;2.07;89.28
76460;BME280;65299;46.084;18.762;2024-01-16T02:47:33;99952.19;;;2.17;88.11
76460;BME280;65299;46.084;18.762;2024-01-16T02:50:33;99951.38;;;2.17;88.50
76460;BME280;65299;46.084;18.762;2024-01-16T02:53:34;99960.66;;;1.95;88.84
76460;BME280;65299;46.084;18.762;2024-01-16T02:56:34;99968.41;;;1.83;89.38
76460;BME280;65299;46.084;18.762;2024-01-16T02:59:35;99969.59;;;1.87;89.14
76460;BME280;65299;46.084;18.762;2024-01-16T03:02:35;99969.63;;;1.81;89.38
76460;BME280;65299;46.084;18.762;2024-01-16T03:05:36;99965.63;;;1.78;89.35
76460;BME280;65299;46.084;18.762;2024-01-16T03:08:36;99966.06;;;1.75;89.26
76460;BME280;65299;46.084;18.762;2024-01-16T03:11:37;99978.00;;;1.64;89.48
76460;BME280;65299;46.084;18.762;2024-01-16T03:14:37;99990.16;;;1.52;90.27
76460;BME280;65299;46.084;18.762;2024-01-16T03:17:39;99990.91;;;1.59;90.42
76460;BME280;65299;46.084;18.762;2024-01-16T03:20:39;99990.81;;;1.41;90.07
76460;BME280;65299;46.084;18.762;2024-01-16T03:23:40;99998.78;;;1.53;89.84
76460;BME280;65299;46.084;18.762;2024-01-16T03:26:40;100012.19;;;1.38;90.35
76460;BME280;65299;46.084;18.762;2024-01-16T03:29:42;100009.50;;;1.45;90.46
76460;BME280;65299;46.084;18.762;2024-01-16T03:32:43;100018.38;;;1.44;90.65
76460;BME280;65299;46.084;18.762;2024-01-16T03:35:43;100008.75;;;1.38;91.14
76460;BME280;65299;46.084;18.762;2024-01-16T03:38:44;100017.22;;;1.33;91.61
76460;BME280;65299;46.084;18.762;2024-01-16T03:41:44;100025.03;;;1.40;91.60
76460;BME280;65299;46.084;18.762;2024-01-16T03:44:44;100022.34;;;1.15;91.82
76460;BME280;65299;46.084;18.762;2024-01-16T03:47:45;100023.88;;;1.29;92.02
76460;BME280;65299;46.084;18.762;2024-01-16T03:50:45;100033.16;;;1.25;91.65
76460;BME280;65299;46.084;18.762;2024-01-16T03:53:47;100042.41;;;1.21;91.74
76460;BME280;65299;46.084;18.762;2024-01-16T03:56:48;100035.94;;;1.30;91.57
76460;BME280;65299;46.084;18.762;2024-01-16T03:59:48;100036.97;;;1.23;91.26
76460;BME280;65299;46.084;18.762;2024-01-16T04:02:49;100048.38;;;1.35;91.53
76460;BME280;65299;46.084;18.762;2024-01-16T04:05:49;100050.56;;;1.44;90.92
76460;BME280;65299;46.084;18.762;2024-01-16T04:08:50;100051.41;;;1.32;90.86
76460;BME280;65299;46.084;18.762;2024-01-16T04:11:50;100054.84;;;1.32;91.01
76460;BME280;65299;46.084;18.762;2024-01-16T04:14:51;100065.94;;;1.21;91.30
76460;BME280;65299;46.084;18.762;2024-01-16T04:17:51;100060.97;;;1.07;91.54
76460;BME280;65299;46.084;18.762;2024-01-16T04:20:51;100070.13;;;1.29;91.10
76460;BME280;65299;46.084;18.762;2024-01-16T04:23:52;100078.53;;;1.37;89.89
76460;BME280;65299;46.084;18.762;2024-01-16T04:26:52;100079.97;;;1.27;90.21
76460;BME280;65299;46.084;18.762;2024-01-16T04:29:53;100082.59;;;1.20;90.08
76460;BME280;65299;46.084;18.762;2024-01-16T04:32:53;100082.00;;;1.18;90.46
76460;BME280;65299;46.084;18.762;2024-01-16T04:35:54;100087.09;;;1.07;90.59
76460;BME280;65299;46.084;18.762;2024-01-16T04:38:54;100089.53;;;1.02;90.93
76460;BME280;65299;46.084;18.762;2024-01-16T04:41:55;100095.38;;;0.97;90.89
76460;BME280;65299;46.084;18.762;2024-01-16T04:44:55;100102.78;;;1.00;90.38
76460;BME280;65299;46.084;18.762;2024-01-16T04:47:55;100091.94;;;0.97;90.37
76460;BME280;65299;46.084;18.762;2024-01-16T04:50:56;100093.94;;;1.01;90.32
76460;BME280;65299;46.084;18.762;2024-01-16T04:53:57;100097.38;;;1.02;89.66
76460;BME280;65299;46.084;18.762;2024-01-16T04:56:57;100110.22;;;1.03;89.38
76460;BME280;65299;46.084;18.762;2024-01-16T04:59:58;100116.69;;;0.88;89.90
76460;BME280;65299;46.084;18.762;2024-01-16T05:02:58;100109.84;;;0.93;89.11
76460;BME280;65299;46.084;18.762;2024-01-16T05:05:59;100119.69;;;0.84;88.73
76460;BME280;65299;46.084;18.762;2024-01-16T05:08:59;100116.06;;;0.85;88.96
76460;BME280;65299;46.084;18.762;2024-01-16T05:12:00;100129.50;;;1.02;88.43
76460;BME280;65299;46.084;18.762;2024-01-16T05:15:00;100134.31;;;1.12;87.49
76460;BME280;65299;46.084;18.762;2024-01-16T05:18:01;100131.94;;;1.04;86.82
76460;BME280;65299;46.084;18.762;2024-01-16T05:21:01;100149.66;;;0.56;87.60
76460;BME280;65299;46.084;18.762;2024-01-16T05:24:04;100153.88;;;0.70;88.78
76460;BME280;65299;46.084;18.762;2024-01-16T05:27:05;100150.66;;;0.74;89.03
76460;BME280;65299;46.084;18.762;2024-01-16T05:30:06;100149.28;;;0.59;88.39
76460;BME280;65299;46.084;18.762;2024-01-16T05:33:08;100159.91;;;0.64;88.43
76460;BME280;65299;46.084;18.762;2024-01-16T05:36:08;100165.53;;;0.61;88.69
76460;BME280;65299;46.084;18.762;2024-01-16T05:39:09;100168.34;;;0.66;88.58
76460;BME280;65299;46.084;18.762;2024-01-16T05:42:11;100160.72;;;0.71;88.12
76460;BME280;65299;46.084;18.762;2024-01-16T05:45:12;100172.94;;;0.64;87.69
76460;BME280;65299;46.084;18.762;2024-01-16T05:48:13;100164.72;;;0.67;88.46
76460;BME280;65299;46.084;18.762;2024-01-16T05:51:14;100178.38;;;0.56;88.78
76460;BME280;65299;46.084;18.762;2024-01-16T05:54:14;100173.97;;;0.63;88.63
76460;BME280;65299;46.084;18.762;2024-01-16T05:57:15;100181.38;;;0.66;88.85
76460;BME280;65299;46.084;18.762;2024-01-16T06:00:15;100178.78;;;0.53;88.59
76460;BME280;65299;46.084;18.762;2024-01-16T06:03:18;100178.78;;;0.53;89.33
76460;BME280;65299;46.084;18.762;2024-01-16T06:06:19;100191.03;;;0.46;89.07
76460;BME280;65299;46.084;18.762;2024-01-16T06:09:19;100196.03;;;0.41;88.01
76460;BME280;65299;46.084;18.762;2024-01-16T06:12:19;100197.59;;;0.16;88.94
76460;BME280;65299;46.084;18.762;2024-01-16T06:15:20;100206.44;;;0.08;89.69
76460;BME280;65299;46.084;18.762;2024-01-16T06:18:20;100200.34;;;-0.06;89.74
76460;BME280;65299;46.084;18.762;2024-01-16T06:21:21;100205.53;;;-0.12;89.94
76460;BME280;65299;46.084;18.762;2024-01-16T06:24:22;100214.38;;;-0.13;90.02
76460;BME280;65299;46.084;18.762;2024-01-16T06:27:23;100218.59;;;-0.06;90.22
76460;BME280;65299;46.084;18.762;2024-01-16T06:30:23;100225.06;;;0.05;89.40
76460;BME280;65299;46.084;18.762;2024-01-16T06:33:24;100224.84;;;-0.07;88.70
76460;BME280;65299;46.084;18.762;2024-01-16T06:36:26;100235.44;;;-0.55;88.83
76460;BME280;65299;46.084;18.762;2024-01-16T06:39:26;100242.75;;;-0.72;89.99
76460;BME280;65299;46.084;18.762;2024-01-16T06:42:30;100249.25;;;-0.61;90.72
76460;BME280;65299;46.084;18.762;2024-01-16T06:45:30;100251.41;;;-0.65;91.34
76460;BME280;65299;46.084;18.762;2024-01-16T06:48:30;100267.00;;;-0.37;91.98
76460;BME280;65299;46.084;18.762;2024-01-16T06:51:31;100270.19;;;-0.01;91.23
76460;BME280;65299;46.084;18.762;2024-01-16T06:54:31;100269.38;;;-0.02;91.56
76460;BME280;65299;46.084;18.762;2024-01-16T06:57:32;100270.97;;;-0.07;91.85
76460;BME280;65299;46.084;18.762;2024-01-16T07:00:32;100276.97;;;-0.13;92.16
76460;BME280;65299;46.084;18.762;2024-01-16T07:03:33;100283.97;;;-0.14;93.15
76460;BME280;65299;46.084;18.762;2024-01-16T07:06:33;100282.75;;;-0.18;93.27
76460;BME280;65299;46.084;18.762;2024-01-16T07:09:34;100286.69;;;0.06;93.34
76460;BME280;65299;46.084;18.762;2024-01-16T07:12:34;100294.66;;;-0.02;93.53
76460;BME280;65299;46.084;18.762;2024-01-16T07:15:35;100296.97;;;0.21;93.53
76460;BME280;65299;46.084;18.762;2024-01-16T07:18:35;100292.78;;;0.26;93.10
76460;BME280;65299;46.084;18.762;2024-01-16T07:21:36;100299.66;;;0.40;92.52
76460;BME280;65299;46.084;18.762;2024-01-16T07:24:36;100303.56;;;0.17;93.57
76460;BME280;65299;46.084;18.762;2024-01-16T07:27:37;100315.66;;;0.31;93.75
76460;BME280;65299;46.084;18.762;2024-01-16T07:30:37;100299.44;;;0.42;93.57
76460;BME280;65299;46.084;18.762;2024-01-16T07:33:38;100311.47;;;0.43;92.84
76460;BME280;65299;46.084;18.762;2024-01-16T07:36:38;100318.56;;;0.55;93.00
76460;BME280;65299;46.084;18.762;2024-01-16T07:39:38;100317.50;;;0.43;93.31
76460;BME280;65299;46.084;18.762;2024-01-16T07:42:39;100327.59;;;0.53;93.02
76460;BME280;65299;46.084;18.762;2024-01-16T07:45:39;100325.78;;;0.47;92.84
76460;BME280;65299;46.084;18.762;2024-01-16T07:48:39;100326.22;;;0.57;92.90
76460;BME280;65299;46.084;18.762;2024-01-16T07:51:40;100341.09;;;0.69;92.82
76460;BME280;65299;46.084;18.762;2024-01-16T07:54:40;100346.38;;;0.89;91.93
76460;BME280;65299;46.084;18.762;2024-01-16T07:57:44;100351.59;;;1.02;91.11
76460;BME280;65299;46.084;18.762;2024-01-16T08:00:44;100361.28;;;1.21;90.16
76460;BME280;65299;46.084;18.762;2024-01-16T08:03:45;100365.69;;;1.21;90.06
76460;BME280;65299;46.084;18.762;2024-01-16T08:06:46;100369.69;;;1.10;90.54
76460;BME280;65299;46.084;18.762;2024-01-16T08:09:46;100376.13;;;1.14;90.05
76460;BME280;65299;46.084;18.762;2024-01-16T08:12:46;100373.94;;;1.18;90.01
76460;BME280;65299;46.084;18.762;2024-01-16T08:15:47;100377.75;;;1.28;89.83
76460;BME280;65299;46.084;18.762;2024-01-16T08:18:47;100392.22;;;1.31;89.46
76460;BME280;65299;46.084;18.762;2024-01-16T08:21:48;100398.06;;;1.39;88.89
76460;BME280;65299;46.084;18.762;2024-01-16T08:24:48;100405.53;;;1.55;88.27
76460;BME280;65299;46.084;18.762;2024-01-16T08:27:48;100417.41;;;1.38;88.80
76460;BME280;65299;46.084;18.762;2024-01-16T08:30:49;100411.97;;;1.59;88.35
76460;BME280;65299;46.084;18.762;2024-01-16T08:33:49;100413.59;;;1.60;88.33
76460;BME280;65299;46.084;18.762;2024-01-16T08:36:50;100423.44;;;1.52;88.17
76460;BME280;65299;46.084;18.762;2024-01-16T08:39:50;100422.22;;;1.61;88.13
76460;BME280;65299;46.084;18.762;2024-01-16T08:42:51;100435.09;;;1.49;88.52
76460;BME280;65299;46.084;18.762;2024-01-16T08:45:55;100421.19;;;1.29;88.49
76460;BME280;65299;46.084;18.762;2024-01-16T08:48:55;100436.31;;;1.40;88.30
76460;BME280;65299;46.084;18.762;2024-01-16T08:51:56;100436.09;;;1.42;88.42
76460;BME280;65299;46.084;18.762;2024-01-16T08:54:57;100433.69;;;1.53;88.82
76460;BME280;65299;46.084;18.762;2024-01-16T08:57:58;100443.34;;;1.99;87.20
76460;BME280;65299;46.084;18.762;2024-01-16T09:00:59;100444.94;;;2.13;86.09
76460;BME280;65299;46.084;18.762;2024-01-16T09:03:59;100453.75;;;2.38;85.41
76460;BME280;65299;46.084;18.762;2024-01-16T09:07:00;100454.13;;;2.48;83.39
76460;BME280;65299;46.084;18.762;2024-01-16T09:10:00;100463.25;;;2.26;83.86
76460;BME280;65299;46.084;18.762;2024-01-16T09:13:01;100466.25;;;2.10;84.61
76460;BME280;65299;46.084;18.762;2024-01-16T09:16:01;100474.63;;;2.64;83.32
76460;BME280;65299;46.084;18.762;2024-01-16T09:19:02;100467.22;;;2.99;81.47
76460;BME280;65299;46.084;18.762;2024-01-16T09:22:02;100463.25;;;3.27;79.95
76460;BME280;65299;46.084;18.762;2024-01-16T09:25:04;100469.16;;;3.16;79.30
76460;BME280;65299;46.084;18.762;2024-01-16T09:28:05;100469.91;;;2.86;80.45
76460;BME280;65299;46.084;18.762;2024-01-16T09:31:06;100466.03;;;2.95;80.22
76460;BME280;65299;46.084;18.762;2024-01-16T09:34:07;100467.31;;;2.79;80.37
76460;BME280;65299;46.084;18.762;2024-01-16T09:37:07;100469.63;;;2.43;81.86
76460;BME280;65299;46.084;18.762;2024-01-16T09:40:08;100457.56;;;2.42;82.83
76460;BME280;65299;46.084;18.762;2024-01-16T09:43:09;100459.97;;;2.50;83.43
76460;BME280;65299;46.084;18.762;2024-01-16T09:46:10;100454.84;;;2.75;82.10
76460;BME280;65299;46.084;18.762;2024-01-16T09:49:15;100456.03;;;2.79;80.73
76460;BME280;65299;46.084;18.762;2024-01-16T09:52:16;100454.78;;;3.25;79.57
76460;BME280;65299;46.084;18.762;2024-01-16T09:55:16;100454.38;;;2.91;80.25
76460;BME280;65299;46.084;18.762;2024-01-16T09:58:19;100448.97;;;2.79;81.30
76460;BME280;65299;46.084;18.762;2024-01-16T10:01:21;100453.91;;;2.43;82.27
76460;BME280;65299;46.084;18.762;2024-01-16T10:04:23;100457.00;;;2.20;82.98
76460;BME280;65299;46.084;18.762;2024-01-16T10:07:25;100461.06;;;1.97;84.14
76460;BME280;65299;46.084;18.762;2024-01-16T10:10:28;100459.06;;;2.76;81.95
76460;BME280;65299;46.084;18.762;2024-01-16T10:13:29;100456.59;;;2.87;80.72
76460;BME280;65299;46.084;18.762;2024-01-16T10:16:55;100477.72;;;2.35;81.64
76460;BME280;65299;46.084;18.762;2024-01-16T10:19:56;100474.47;;;2.46;82.76
76460;BME280;65299;46.084;18.762;2024-01-16T10:22:59;100468.59;;;3.08;80.73
76460;BME280;65299;46.084;18.762;2024-01-16T10:26:12;100459.97;;;3.01;80.33
76460;BME280;65299;46.084;18.762;2024-01-16T10:29:12;100467.84;;;3.32;78.79
76460;BME280;65299;46.084;18.762;2024-01-16T10:32:12;100473.22;;;2.55;80.75
76460;BME280;65299;46.084;18.762;2024-01-16T10:35:13;100480.44;;;2.73;80.58
76460;BME280;65299;46.084;18.762;2024-01-16T10:38:23;100472.28;;;2.94;80.02
76460;BME280;65299;46.084;18.762;2024-01-16T10:41:24;100468.19;;;3.42;78.79
76460;BME280;65299;46.084;18.762;2024-01-16T10:44:25;100462.50;;;3.14;78.32
76460;BME280;65299;46.084;18.762;2024-01-16T10:47:27;100461.19;;;2.92;79.68
76460;BME280;65299;46.084;18.762;2024-01-16T10:50:28;100472.84;;;3.02;80.11
76460;BME280;65299;46.084;18.762;2024-01-16T10:53:33;100472.06;;;3.40;78.76
76460;BME280;65299;46.084;18.762;2024-01-16T10:56:34;100477.88;;;3.04;79.97
76460;BME280;65299;46.084;18.762;2024-01-16T11:00:08;100459.88;;;3.52;78.33
76460;BME280;65299;46.084;18.762;2024-01-16T11:03:18;100465.56;;;3.42;78.56
76460;BME280;65299;46.084;18.762;2024-01-16T11:06:19;100465.03;;;3.33;78.07
76460;BME280;65299;46.084;18.762;2024-01-16T11:09:20;100467.97;;;3.12;79.13
76460;BME280;65299;46.084;18.762;2024-01-16T11:12:21;100465.94;;;3.14;80.04
76460;BME280;65299;46.084;18.762;2024-01-16T11:15:23;100467.66;;;2.89;80.45
76460;BME280;65299;46.084;18.762;2024-01-16T11:18:27;100464.88;;;3.22;79.45
76460;BME280;65299;46.084;18.762;2024-01-16T11:21:27;100457.50;;;3.44;79.63
76460;BME280;65299;46.084;18.762;2024-01-16T11:24:28;100451.84;;;3.40;79.07
76460;BME280;65299;46.084;18.762;2024-01-16T11:27:28;100451.84;;;3.71;78.70
76460;BME280;65299;46.084;18.762;2024-01-16T11:30:30;100448.34;;;3.53;78.57
76460;BME280;65299;46.084;18.762;2024-01-16T11:36:55;100439.25;;;3.55;78.05
76460;BME280;65299;46.084;18.762;2024-01-16T11:47:02;100435.75;;;3.61;77.97
76460;BME280;65299;46.084;18.762;2024-01-16T11:50:10;100438.53;;;3.42;78.74
76460;BME280;65299;46.084;18.762;2024-01-16T11:53:31;100440.69;;;3.76;78.27
76460;BME280;65299;46.084;18.762;2024-01-16T12:00:19;100425.06;;;3.63;77.98
76460;BME280;65299;46.084;18.762;2024-01-16T12:03:22;100436.81;;;3.29;79.02
76460;BME280;65299;46.084;18.762;2024-01-16T12:06:22;100439.00;;;3.01;80.20
76460;BME280;65299;46.084;18.762;2024-01-16T12:09:28;100443.78;;;2.73;80.61
76460;BME280;65299;46.084;18.762;2024-01-16T12:12:32;100441.53;;;2.70;81.41
76460;BME280;65299;46.084;18.762;2024-01-16T12:15:33;100440.50;;;2.77;82.04
76460;BME280;65299;46.084;18.762;2024-01-16T12:18:33;100435.44;;;2.89;81.74
76460;BME280;65299;46.084;18.762;2024-01-16T12:21:42;100433.03;;;3.18;81.23
76460;BME280;65299;46.084;18.762;2024-01-16T12:24:44;100437.44;;;3.24;80.74
76460;BME280;65299;46.084;18.762;2024-01-16T12:27:45;100440.41;;;3.03;80.67
76460;BME280;65299;46.084;18.762;2024-01-16T12:30:50;100435.53;;;3.38;79.79
76460;BME280;65299;46.084;18.762;2024-01-16T12:34:07;100439.41;;;3.60;79.39
76460;BME280;65299;46.084;18.762;2024-01-16T12:37:07;100443.16;;;3.71;79.17
76460;BME280;65299;46.084;18.762;2024-01-16T12:40:08;100433.41;;;3.78;77.68
76460;BME280;65299;46.084;18.762;2024-01-16T12:43:09;100431.44;;;3.73;77.92
76460;BME280;65299;46.084;18.762;2024-01-16T12:46:11;100428.22;;;3.96;76.96
76460;BME280;65299;46.084;18.762;2024-01-16T12:49:11;100435.72;;;3.68;76.85
76460;BME280;65299;46.084;18.762;2024-01-16T12:52:19;100426.66;;;3.64;77.46
76460;BME280;65299;46.084;18.762;2024-01-16T12:55:20;100418.66;;;4.01;76.48
76460;BME280;65299;46.084;18.762;2024-01-16T12:58:22;100421.16;;;4.14;76.38
76460;BME280;65299;46.084;18.762;2024-01-16T13:01:29;100414.91;;;4.34;76.36
76460;BME280;65299;46.084;18.762;2024-01-16T13:04:29;100406.22;;;4.15;76.69
76460;BME280;65299;46.084;18.762;2024-01-16T13:07:30;100410.75;;;3.59;77.88
76460;BME280;65299;46.084;18.762;2024-01-16T13:10:33;100401.63;;;3.36;78.90
76460;BME280;65299;46.084;18.762;2024-01-16T13:13:34;100401.66;;;3.05;80.29
76460;BME280;65299;46.084;18.762;2024-01-16T13:16:34;100402.66;;;3.04;80.98
76460;BME280;65299;46.084;18.762;2024-01-16T13:19:34;100405.56;;;2.90;80.40
76460;BME280;65299;46.084;18.762;2024-01-16T13:22:36;100406.19;;;2.41;82.31
76460;BME280;65299;46.084;18.762;2024-01-16T13:25:36;100398.63;;;2.20;83.51
76460;BME280;65299;46.084;18.762;2024-01-16T13:28:37;100394.28;;;2.45;83.03
76460;BME280;65299;46.084;18.762;2024-01-16T13:31:37;100407.84;;;2.22;83.63
76460;BME280;65299;46.084;18.762;2024-01-16T13:34:39;100401.28;;;2.58;83.10
76460;BME280;65299;46.084;18.762;2024-01-16T13:37:43;100408.66;;;2.80;81.39
76460;BME280;65299;46.084;18.762;2024-01-16T13:40:43;100416.97;;;2.71;81.97
76460;BME280;65299;46.084;18.762;2024-01-16T13:43:43;100418.97;;;2.18;84.03
76460;BME280;65299;46.084;18.762;2024-01-16T13:46:44;100409.31;;;2.05;84.32
76460;BME280;65299;46.084;18.762;2024-01-16T13:49:45;100402.94;;;2.45;84.70
76460;BME280;65299;46.084;18.762;2024-01-16T13:52:45;100404.53;;;2.53;82.44
76460;BME280;65299;46.084;18.762;2024-01-16T13:55:46;100409.41;;;2.36;83.73
76460;BME280;65299;46.084;18.762;2024-01-16T13:58:46;100402.81;;;2.78;81.94
76460;BME280;65299;46.084;18.762;2024-01-16T14:01:46;100402.00;;;2.78;81.25
76460;BME280;65299;46.084;18.762;2024-01-16T14:04:47;100401.63;;;2.74;82.29
76460;BME280;65299;46.084;18.762;2024-01-16T14:07:51;100395.13;;;2.83;81.66
76460;BME280;65299;46.084;18.762;2024-01-16T14:10:52;100388.63;;;2.92;81.10
76460;BME280;65299;46.084;18.762;2024-01-16T14:13:52;100378.84;;;2.75;81.72
76460;BME280;65299;46.084;18.762;2024-01-16T14:16:53;100384.53;;;2.65;82.36
76460;BME280;65299;46.084;18.762;2024-01-16T14:19:54;100387.56;;;2.62;82.77
76460;BME280;65299;46.084;18.762;2024-01-16T14:22:55;100377.81;;;2.38;82.81
76460;BME280;65299;46.084;18.762;2024-01-16T14:25:56;100377.53;;;2.52;82.50
76460;BME280;65299;46.084;18.762;2024-01-16T14:28:56;100378.34;;;2.46;82.37
76460;BME280;65299;46.084;18.762;2024-01-16T14:31:57;100376.72;;;2.59;81.61
76460;BME280;65299;46.084;18.762;2024-01-16T14:34:58;100370.25;;;2.61;81.07
76460;BME280;65299;46.084;18.762;2024-01-16T14:37:59;100371.97;;;2.36;81.66
76460;BME280;65299;46.084;18.762;2024-01-16T14:40:59;100378.31;;;1.96;84.26
76460;BME280;65299;46.084;18.762;2024-01-16T14:44:00;100376.16;;;1.66;85.61
76460;BME280;65299;46.084;18.762;2024-01-16T14:47:00;100365.50;;;1.42;86.06
76460;BME280;65299;46.084;18.762;2024-01-16T14:50:00;100369.91;;;1.15;87.14
76460;BME280;65299;46.084;18.762;2024-01-16T14:53:03;100364.28;;;1.12;87.69
76460;BME280;65299;46.084;18.762;2024-01-16T14:56:06;100364.84;;;0.94;87.53
76460;BME280;65299;46.084;18.762;2024-01-16T14:59:06;100371.72;;;1.02;87.41
76460;BME280;65299;46.084;18.762;2024-01-16T15:02:07;100372.44;;;0.76;87.27
76460;BME280;65299;46.084;18.762;2024-01-16T15:05:16;100374.63;;;0.66;88.86
76460;BME280;65299;46.084;18.762;2024-01-16T15:08:17;100370.00;;;0.55;89.77
76460;BME280;65299;46.084;18.762;2024-01-16T15:11:17;100368.75;;;0.57;90.29
76460;BME280;65299;46.084;18.762;2024-01-16T15:14:18;100380.44;;;0.55;89.95
76460;BME280;65299;46.084;18.762;2024-01-16T15:17:18;100387.81;;;0.45;89.98
76460;BME280;65299;46.084;18.762;2024-01-16T15:20:18;100398.03;;;0.40;89.89
76460;BME280;65299;46.084;18.762;2024-01-16T15:23:19;100402.75;;;0.23;90.23
76460;BME280;65299;46.084;18.762;2024-01-16T15:26:19;100410.09;;;0.47;91.06
76460;BME280;65299;46.084;18.762;2024-01-16T15:29:20;100410.03;;;0.75;89.26
76460;BME280;65299;46.084;18.762;2024-01-16T15:32:21;100417.53;;;1.04;88.79
76460;BME280;65299;46.084;18.762;2024-01-16T15:35:22;100419.16;;;1.18;88.55
76460;BME280;65299;46.084;18.762;2024-01-16T15:38:22;100432.47;;;1.36;87.91
76460;BME280;65299;46.084;18.762;2024-01-16T15:41:23;100433.88;;;1.32;87.41
76460;BME280;65299;46.084;18.762;2024-01-16T15:44:23;100429.03;;;1.29;87.50
76460;BME280;65299;46.084;18.762;2024-01-16T15:47:24;100428.41;;;1.14;87.60
76460;BME280;65299;46.084;18.762;2024-01-16T15:50:24;100424.88;;;0.74;88.15
76460;BME280;65299;46.084;18.762;2024-01-16T15:53:26;100433.25;;;1.17;86.99
76460;BME280;65299;46.084;18.762;2024-01-16T15:56:27;100436.91;;;1.42;85.68
76460;BME280;65299;46.084;18.762;2024-01-16T15:59:27;100445.13;;;1.39;85.82
76460;BME280;65299;46.084;18.762;2024-01-16T16:02:28;100439.63;;;0.95;86.33
76460;BME280;65299;46.084;18.762;2024-01-16T16:05:28;100450.09;;;1.08;86.09